createdAt,value
2018-01-06T00:00:45.531Z,1.13
2018-01-06T00:03:51.010Z,1.20
2018-01-06T00:06:57.278Z,1.20
2018-01-06T00:10:02.346Z,1.60
2018-01-06T00:13:07.645Z,1.70
2018-01-06T00:16:15.129Z,1.60
2018-01-06T00:19:20.030Z,1.60
2018-01-06T00:22:25.598Z,2.10
2018-01-06T00:25:31.006Z,1.87
2018-01-06T00:28:37.422Z,2.60
2018-01-06T00:31:43.109Z,2.70
2018-01-06T00:34:48.055Z,2.30
2018-01-06T00:37:52.814Z,2.70
2018-01-06T00:40:58.310Z,2.73
2018-01-06T00:44:04.106Z,3.27
2018-01-06T00:47:09.559Z,3.20
2018-01-06T00:50:15.778Z,3.77
2018-01-06T00:53:21.958Z,4.00
2018-01-06T00:56:27.570Z,4.00
2018-01-06T00:59:33.358Z,4.27
2018-01-06T01:02:39.777Z,4.10
2018-01-06T01:05:45.131Z,3.87
2018-01-06T01:08:50.586Z,5.07
2018-01-06T01:11:55.606Z,4.43
2018-01-06T01:15:01.314Z,4.60
2018-01-06T01:18:06.821Z,4.20
2018-01-06T01:21:12.624Z,4.70
2018-01-06T01:24:18.194Z,4.77
2018-01-06T01:27:23.998Z,5.50
2018-01-06T01:30:29.585Z,5.00
2018-01-06T01:33:34.848Z,5.43
2018-01-06T01:36:40.418Z,5.33
2018-01-06T01:39:45.275Z,4.83
2018-01-06T01:42:50.882Z,5.17
2018-01-06T01:45:55.882Z,5.63
2018-01-06T01:49:01.294Z,5.97
2018-01-06T01:52:06.585Z,5.87
2018-01-06T01:55:11.373Z,5.87
2018-01-06T01:58:17.778Z,6.63
2018-01-06T02:01:22.798Z,6.27
2018-01-06T02:04:28.281Z,7.70
2018-01-06T02:07:33.194Z,6.47
2018-01-06T02:10:38.770Z,6.30
2018-01-06T02:13:45.139Z,5.90
2018-01-06T02:16:50.324Z,6.57
2018-01-06T02:19:55.878Z,6.33
2018-01-06T02:23:00.652Z,6.20
2018-01-06T02:26:06.506Z,6.60
2018-01-06T02:29:11.629Z,6.37
2018-01-06T02:32:17.106Z,5.90
2018-01-06T02:35:22.798Z,6.70
2018-01-06T02:38:27.598Z,6.47
2018-01-06T02:41:33.639Z,6.83
2018-01-06T02:44:39.227Z,5.80
2018-01-06T02:47:44.614Z,6.20
2018-01-06T02:50:50.177Z,6.80
2018-01-06T02:53:56.529Z,6.10
2018-01-06T02:57:02.334Z,6.40
2018-01-06T03:00:07.630Z,7.00
2018-01-06T03:03:13.137Z,6.40
2018-01-06T03:06:18.314Z,6.90
2018-01-06T03:09:23.764Z,6.70
2018-01-06T03:12:29.494Z,7.20
2018-01-06T03:15:36.018Z,6.90
2018-01-06T03:18:41.225Z,7.10
2018-01-06T03:21:47.494Z,6.90
2018-01-06T03:24:52.578Z,7.40
2018-01-06T03:27:58.265Z,7.30
2018-01-06T03:31:03.192Z,6.17
2018-01-06T03:34:09.242Z,7.37
2018-01-06T03:37:14.245Z,6.83
2018-01-06T03:40:20.546Z,7.00
2018-01-06T03:43:25.766Z,6.30
2018-01-06T03:46:30.850Z,6.33
2018-01-06T03:49:36.667Z,6.87
2018-01-06T03:52:41.458Z,5.93
2018-01-06T03:55:46.693Z,6.73
2018-01-06T03:58:51.562Z,6.63
2018-01-06T04:01:57.513Z,6.83
2018-01-06T04:05:04.048Z,5.70
2018-01-06T04:08:10.275Z,6.87
2018-01-06T04:11:15.778Z,6.40
2018-01-06T04:14:21.154Z,5.93
2018-01-06T04:17:27.419Z,6.33
2018-01-06T04:20:32.518Z,6.20
2018-01-06T04:23:38.981Z,6.10
2018-01-06T04:26:44.318Z,6.53
2018-01-06T04:29:50.157Z,6.30
2018-01-06T04:32:54.975Z,6.13
2018-01-06T04:35:59.862Z,7.63
2018-01-06T04:39:04.722Z,7.17
2018-01-06T04:42:10.518Z,7.30
2018-01-06T04:45:15.979Z,7.20
2018-01-06T04:48:21.038Z,6.40
2018-01-06T04:51:26.578Z,6.60
2018-01-06T04:54:32.183Z,6.87
2018-01-06T04:57:37.739Z,6.40
2018-01-06T05:00:43.550Z,6.93
2018-01-06T05:03:49.361Z,6.70
2018-01-06T05:06:54.729Z,7.00
2018-01-06T05:10:00.398Z,7.00
2018-01-06T05:13:06.990Z,6.87
2018-01-06T05:16:12.261Z,7.27
2018-01-06T05:19:17.881Z,6.20
2018-01-06T05:22:22.665Z,6.63
2018-01-06T05:25:28.642Z,6.30
2018-01-06T05:28:34.406Z,6.50
2018-01-06T05:31:39.801Z,7.30
2018-01-06T05:34:45.152Z,6.67
2018-01-06T05:37:50.666Z,6.73
2018-01-06T05:40:55.866Z,6.10
2018-01-06T05:44:00.970Z,6.00
2018-01-06T05:47:06.181Z,5.83
2018-01-06T05:50:11.678Z,6.00
2018-01-06T05:53:17.521Z,5.93
2018-01-06T05:56:23.957Z,6.73
2018-01-06T05:59:30.646Z,6.97
2018-01-06T06:02:36.554Z,6.00
2018-01-06T06:05:42.027Z,5.20
2018-01-06T06:08:47.895Z,4.47
2018-01-06T06:11:54.058Z,4.67
2018-01-06T06:14:59.598Z,4.70
2018-01-06T06:18:04.561Z,4.50
2018-01-06T06:21:10.050Z,4.10
2018-01-06T06:24:15.723Z,4.80
2018-01-06T06:27:21.505Z,4.73
2018-01-06T06:30:27.506Z,4.10
2018-01-06T06:33:33.338Z,4.47
2018-01-06T06:36:39.126Z,4.33
2018-01-06T06:39:44.653Z,3.83
2018-01-06T06:42:50.445Z,3.80
2018-01-06T06:45:55.258Z,3.50
2018-01-06T06:49:00.845Z,4.10
2018-01-06T06:52:06.738Z,10.03
2018-01-06T06:55:12.290Z,7.77
2018-01-06T06:58:18.690Z,7.27
2018-01-06T07:01:24.150Z,5.80
2018-01-06T07:04:29.995Z,4.77
2018-01-06T07:07:35.188Z,4.30
2018-01-06T07:10:40.734Z,4.80
2018-01-06T07:13:45.690Z,3.87
2018-01-06T07:16:51.577Z,4.90
2018-01-06T07:19:56.812Z,3.90
2018-01-06T07:23:02.130Z,3.80
2018-01-06T07:26:07.233Z,4.33
2018-01-06T07:29:13.510Z,4.20
2018-01-06T07:32:20.031Z,3.80
2018-01-06T07:35:25.354Z,3.57
2018-01-06T07:38:30.531Z,3.57
2018-01-06T07:41:35.889Z,3.50
2018-01-06T07:44:40.629Z,3.57
2018-01-06T07:47:46.238Z,5.30
2018-01-06T07:50:51.909Z,4.83
2018-01-06T07:53:56.640Z,4.43
2018-01-06T07:57:01.853Z,4.87
2018-01-06T08:00:07.262Z,4.93
2018-01-06T08:03:12.269Z,4.60
2018-01-06T08:06:17.340Z,4.80
2018-01-06T08:09:23.730Z,5.47
2018-01-06T08:12:28.918Z,5.13
2018-01-06T08:15:34.683Z,4.97
2018-01-06T08:18:40.562Z,5.50
2018-01-06T08:21:46.382Z,4.30
2018-01-06T08:24:51.982Z,5.30
2018-01-06T08:27:57.618Z,3.57
2018-01-06T08:31:03.407Z,4.33
2018-01-06T08:34:08.717Z,5.07
2018-01-06T08:37:13.565Z,3.80
2018-01-06T08:40:19.491Z,3.60
2018-01-06T08:43:24.654Z,3.27
2018-01-06T08:46:29.652Z,3.50
2018-01-06T08:49:34.641Z,3.10
2018-01-06T08:52:40.422Z,3.37
2018-01-06T08:55:45.686Z,4.33
2018-01-06T08:58:50.581Z,12.83
2018-01-06T09:01:56.157Z,6.40
2018-01-06T09:05:01.249Z,5.70
2018-01-06T09:08:06.189Z,4.30
2018-01-06T09:11:12.049Z,4.87
2018-01-06T09:14:18.058Z,4.50
2018-01-06T09:17:23.502Z,5.60
2018-01-06T09:20:28.547Z,4.73
2018-01-06T09:23:33.721Z,5.57
2018-01-06T09:26:39.875Z,5.60
2018-01-06T09:29:44.979Z,7.17
2018-01-06T09:32:50.190Z,7.07
2018-01-06T09:35:56.057Z,7.07
2018-01-06T09:39:01.398Z,7.30
2018-01-06T09:42:07.093Z,5.83
2018-01-06T09:45:12.053Z,6.57
2018-01-06T09:48:17.741Z,5.40
2018-01-06T09:51:23.386Z,11.40
2018-01-06T09:54:28.534Z,8.67
2018-01-06T09:57:34.214Z,4.83
2018-01-06T10:00:39.902Z,3.33
2018-01-06T10:03:46.062Z,4.83
2018-01-06T10:06:51.610Z,4.37
2018-01-06T10:09:57.481Z,4.43
2018-01-06T10:13:03.113Z,4.43
2018-01-06T10:16:08.774Z,2.73
2018-01-06T10:19:14.753Z,3.30
2018-01-06T10:22:19.858Z,3.00
2018-01-06T10:25:26.031Z,2.70
2018-01-06T10:28:32.201Z,2.80
2018-01-06T10:31:37.250Z,2.80
2018-01-06T10:34:43.064Z,2.37
2018-01-06T10:37:48.110Z,2.60
2018-01-06T10:40:53.561Z,2.70
2018-01-06T10:43:59.426Z,2.37
2018-01-06T10:47:05.618Z,2.30
2018-01-06T10:50:10.394Z,2.70
2018-01-06T10:53:15.493Z,2.97
2018-01-06T10:56:20.973Z,3.97
2018-01-06T10:59:26.129Z,4.40
2018-01-06T11:02:32.367Z,3.10
2018-01-06T11:05:37.694Z,4.10
2018-01-06T11:08:43.295Z,2.30
2018-01-06T11:11:49.002Z,2.20
2018-01-06T11:14:54.336Z,2.40
2018-01-06T11:17:59.351Z,3.23
2018-01-06T11:21:04.242Z,4.30
2018-01-06T11:24:09.511Z,4.00
2018-01-06T11:27:14.562Z,4.53
2018-01-06T11:30:19.670Z,4.10
2018-01-06T11:33:25.212Z,5.37
2018-01-06T11:36:30.977Z,4.70
2018-01-06T11:39:36.834Z,4.33
2018-01-06T11:42:42.301Z,4.20
2018-01-06T11:45:48.398Z,4.20
2018-01-06T11:48:53.945Z,4.50
2018-01-06T11:51:59.702Z,4.90
2018-01-06T11:55:05.190Z,6.10
2018-01-06T11:58:09.951Z,7.23
2018-01-06T12:01:14.805Z,7.33
2018-01-06T12:04:20.441Z,7.33
2018-01-06T12:07:26.113Z,6.53
2018-01-06T12:10:32.098Z,5.20
2018-01-06T12:13:37.142Z,4.60
2018-01-06T12:16:42.682Z,5.33
2018-01-06T12:19:48.810Z,4.80
2018-01-06T12:22:54.590Z,4.40
2018-01-06T12:25:59.628Z,5.10
2018-01-06T12:29:04.530Z,4.40
2018-01-06T12:32:10.458Z,6.53
2018-01-06T12:35:16.809Z,6.73
2018-01-06T12:38:22.178Z,6.77
2018-01-06T12:41:27.638Z,7.40
2018-01-06T12:44:32.386Z,6.83
2018-01-06T12:47:37.794Z,7.30
2018-01-06T12:50:43.354Z,10.90
2018-01-06T12:53:48.750Z,9.87
2018-01-06T12:56:53.835Z,6.67
2018-01-06T13:00:00.318Z,5.67
2018-01-06T13:03:05.807Z,6.83
2018-01-06T13:06:11.353Z,5.40
2018-01-06T13:09:16.233Z,6.10
2018-01-06T13:12:21.053Z,6.47
2018-01-06T13:15:25.802Z,5.50
2018-01-06T13:18:31.578Z,5.47
2018-01-06T13:21:37.181Z,5.70
2018-01-06T13:24:42.686Z,5.30
2018-01-06T13:27:48.962Z,6.13
2018-01-06T13:30:54.962Z,6.30
2018-01-06T13:34:00.928Z,6.20
2018-01-06T13:37:07.312Z,5.90
2018-01-06T13:40:12.269Z,6.70
2018-01-06T13:43:17.630Z,6.70
2018-01-06T13:46:22.681Z,7.00
2018-01-06T13:49:27.535Z,6.27
2018-01-06T13:52:33.516Z,7.00
2018-01-06T13:55:38.602Z,6.30
2018-01-06T13:58:44.226Z,7.20
2018-01-06T14:01:49.738Z,7.37
2018-01-06T14:04:54.539Z,8.20
2018-01-06T14:08:00.014Z,8.67
2018-01-06T14:11:05.885Z,8.83
2018-01-06T14:14:11.490Z,9.57
2018-01-06T14:17:16.603Z,9.57
2018-01-06T14:20:22.470Z,8.97
2018-01-06T14:23:28.210Z,9.70
2018-01-06T14:26:33.201Z,8.50
2018-01-06T14:29:38.341Z,10.87
2018-01-06T14:32:43.823Z,11.13
2018-01-06T14:35:49.011Z,10.60
2018-01-06T14:38:53.886Z,11.37
2018-01-06T14:41:58.943Z,10.50
2018-01-06T14:45:04.702Z,12.00
2018-01-06T14:48:10.394Z,11.37
2018-01-06T14:51:16.526Z,11.87
2018-01-06T14:54:22.758Z,11.20
2018-01-06T14:57:28.147Z,11.97
2018-01-06T15:00:33.322Z,12.77
2018-01-06T15:03:39.275Z,11.57
2018-01-06T15:06:45.728Z,11.67
2018-01-06T15:09:51.538Z,11.20
2018-01-06T15:12:57.009Z,11.77
2018-01-06T15:16:02.022Z,11.83
2018-01-06T15:19:07.558Z,12.10
2018-01-06T15:22:12.564Z,10.40
2018-01-06T15:25:18.157Z,10.13
2018-01-06T15:28:24.218Z,9.40
2018-01-06T15:31:28.995Z,9.70
2018-01-06T15:34:33.869Z,10.80
2018-01-06T15:37:38.958Z,10.77
2018-01-06T15:40:44.410Z,10.10
2018-01-06T15:43:49.821Z,10.00
2018-01-06T15:46:54.761Z,9.37
2018-01-06T15:50:00.479Z,8.97
2018-01-06T15:53:05.446Z,8.87
2018-01-06T15:56:11.193Z,10.57
2018-01-06T15:59:16.869Z,10.07
2018-01-06T16:02:21.634Z,10.73
2018-01-06T16:05:27.396Z,11.03
2018-01-06T16:08:32.762Z,10.93
2018-01-06T16:11:39.354Z,11.10
2018-01-06T16:14:45.385Z,13.67
2018-01-06T16:17:51.107Z,13.33
2018-01-06T16:20:56.198Z,13.43
2018-01-06T16:24:01.601Z,13.73
2018-01-06T16:27:07.127Z,14.67
2018-01-06T16:30:11.835Z,16.00
2018-01-06T16:33:16.649Z,16.10
2018-01-06T16:36:21.961Z,15.90
2018-01-06T16:39:27.446Z,15.47
2018-01-06T16:42:33.237Z,16.50
2018-01-06T16:45:39.855Z,17.20
2018-01-06T16:48:44.974Z,17.73
2018-01-06T16:51:49.977Z,17.13
2018-01-06T16:54:55.116Z,16.93
2018-01-06T16:58:01.385Z,17.00
2018-01-06T17:01:06.950Z,18.97
2018-01-06T17:04:15.420Z,17.93
2018-01-06T17:07:21.046Z,19.87
2018-01-06T17:10:25.946Z,20.57
2018-01-06T17:13:30.853Z,21.00
2018-01-06T17:16:36.926Z,19.80
2018-01-06T17:19:41.920Z,20.20
2018-01-06T17:22:47.763Z,21.80
2018-01-06T17:25:53.378Z,21.00
2018-01-06T17:28:58.987Z,22.50
2018-01-06T17:32:03.737Z,23.60
2018-01-06T17:35:09.519Z,23.70
2018-01-06T17:38:14.653Z,22.77
2018-01-06T17:41:19.302Z,26.07
2018-01-06T17:44:25.074Z,24.07
2018-01-06T17:47:30.499Z,23.17
2018-01-06T17:50:35.922Z,25.40
2018-01-06T17:53:41.484Z,25.63
2018-01-06T17:56:46.638Z,25.43
2018-01-06T17:59:52.197Z,26.77
2018-01-06T18:02:57.137Z,25.20
2018-01-06T18:06:02.930Z,28.03
2018-01-06T18:09:08.806Z,26.50
2018-01-06T18:12:13.706Z,26.83
2018-01-06T18:15:18.678Z,32.20
2018-01-06T18:18:24.654Z,28.57
2018-01-06T18:21:29.641Z,27.20
2018-01-06T18:24:34.465Z,26.67
2018-01-06T18:27:39.314Z,26.17
2018-01-06T18:30:44.685Z,26.07
2018-01-06T18:33:50.677Z,26.20
2018-01-06T18:36:56.509Z,26.07
2018-01-06T18:40:02.339Z,25.73
2018-01-06T18:43:07.898Z,25.60
2018-01-06T18:46:13.643Z,24.90
2018-01-06T18:49:18.400Z,22.37
2018-01-06T18:52:23.145Z,21.57
2018-01-06T18:55:29.022Z,24.50
2018-01-06T18:58:34.992Z,24.17
2018-01-06T19:01:40.250Z,22.00
2018-01-06T19:04:45.789Z,25.93
2018-01-06T19:07:50.909Z,24.00
2018-01-06T19:10:57.117Z,23.37
2018-01-06T19:14:02.153Z,23.60
2018-01-06T19:17:08.565Z,22.67
2018-01-06T19:20:14.445Z,22.10
2018-01-06T19:23:19.830Z,23.90
2018-01-06T19:26:26.131Z,21.53
2018-01-06T19:29:32.169Z,21.27
2018-01-06T19:32:38.019Z,22.23
2018-01-06T19:35:43.713Z,22.40
2018-01-06T19:38:48.856Z,22.83
2018-01-06T19:41:54.297Z,22.50
2018-01-06T19:45:00.230Z,25.17
2018-01-06T19:48:05.388Z,25.60
2018-01-06T19:51:10.536Z,27.60
2018-01-06T19:54:16.195Z,25.77
2018-01-06T19:57:21.733Z,24.30
2018-01-06T20:00:27.146Z,24.40
2018-01-06T20:03:33.638Z,22.93
2018-01-06T20:06:38.763Z,23.60
2018-01-06T20:09:44.497Z,22.57
2018-01-06T20:12:50.469Z,21.97
2018-01-06T20:15:56.109Z,22.63
2018-01-06T20:19:01.953Z,22.00
2018-01-06T20:22:07.472Z,20.13
2018-01-06T20:25:13.087Z,19.70
2018-01-06T20:28:18.773Z,19.63
2018-01-06T20:31:24.482Z,19.23
2018-01-06T20:34:30.912Z,19.83
2018-01-06T20:37:35.741Z,20.27
2018-01-06T20:40:40.568Z,20.00
2018-01-06T20:43:45.325Z,20.50
2018-01-06T20:46:51.801Z,19.80
2018-01-06T20:49:57.014Z,18.73
2018-01-06T20:53:03.058Z,19.07
2018-01-06T20:56:08.054Z,18.37
2018-01-06T20:59:14.082Z,20.13
2018-01-06T21:02:19.632Z,19.70
2018-01-06T21:05:24.663Z,21.13
2018-01-06T21:08:29.540Z,19.37
2018-01-06T21:11:34.686Z,18.03
2018-01-06T21:14:39.858Z,19.30
2018-01-06T21:17:44.941Z,22.53
2018-01-06T21:20:50.428Z,19.00
2018-01-06T21:23:56.138Z,18.50
2018-01-06T21:27:02.217Z,19.93
2018-01-06T21:30:07.510Z,18.30
2018-01-06T21:33:13.515Z,18.30
2018-01-06T21:36:18.225Z,18.83
2018-01-06T21:39:24.175Z,19.80
2018-01-06T21:42:29.162Z,18.00
2018-01-06T21:45:34.804Z,19.50
2018-01-06T21:48:39.980Z,19.77
2018-01-06T21:51:45.714Z,20.87
2018-01-06T21:54:51.700Z,22.07
2018-01-06T21:57:56.777Z,20.33
2018-01-06T22:01:02.625Z,20.00
2018-01-06T22:04:08.220Z,18.70
2018-01-06T22:07:13.896Z,20.70
2018-01-06T22:10:19.325Z,19.93
2018-01-06T22:13:24.569Z,22.73
2018-01-06T22:16:30.675Z,20.20
2018-01-06T22:19:44.110Z,21.27
2018-01-06T22:22:49.330Z,21.20
2018-01-06T22:25:55.102Z,21.27
2018-01-06T22:29:02.457Z,21.80
2018-01-06T22:32:08.135Z,21.07
2018-01-06T22:35:13.318Z,20.27
2018-01-06T22:38:18.767Z,18.90
2018-01-06T22:41:24.512Z,20.37
2018-01-06T22:44:29.750Z,20.27
2018-01-06T22:47:34.809Z,20.43
2018-01-06T22:50:40.617Z,20.33
2018-01-06T22:53:46.596Z,19.60
2018-01-06T22:56:53.017Z,19.57
2018-01-06T22:59:58.021Z,19.40
2018-01-06T23:03:03.720Z,20.40
2018-01-06T23:06:09.477Z,20.13
2018-01-06T23:09:15.547Z,20.20
2018-01-06T23:12:21.170Z,20.33
2018-01-06T23:15:26.213Z,20.50
2018-01-06T23:18:32.814Z,20.27
2018-01-06T23:21:37.729Z,19.33
2018-01-06T23:24:43.650Z,20.80
2018-01-06T23:27:48.880Z,20.70
2018-01-06T23:30:54.500Z,18.83
2018-01-06T23:34:00.237Z,20.33
2018-01-06T23:37:05.637Z,20.47
2018-01-06T23:40:11.923Z,19.60
2018-01-06T23:43:17.082Z,18.17
2018-01-06T23:46:22.046Z,18.97
2018-01-06T23:49:27.985Z,20.37
2018-01-06T23:52:33.849Z,17.43
2018-01-06T23:55:39.619Z,18.07
2018-01-06T23:58:44.494Z,19.67
